sensor_id;sensor_type;location;lat;lon;timestamp;P1;durP1;ratioP1;P2;durP2;ratioP2
19940;SDS011;10132;50.864;5.176;2023-12-20T00:00:31;164.13;;;154.27;;
19940;SDS011;10132;50.864;5.176;2023-12-20T00:02:33;222.80;;;209.20;;
19940;SDS011;10132;50.864;5.176;2023-12-20T00:04:36;227.23;;;213.37;;
19940;SDS011;10132;50.864;5.176;2023-12-20T00:06:36;245.20;;;229.13;;
19940;SDS011;10132;50.864;5.176;2023-12-20T00:08:39;394.83;;;370.17;;
19940;SDS011;10132;50.864;5.176;2023-12-20T00:10:42;435.70;;;408.13;;
19940;SDS011;10132;50.864;5.176;2023-12-20T00:12:44;290.37;;;272.30;;
19940;SDS011;10132;50.864;5.176;2023-12-20T00:14:45;487.87;;;457.00;;
19940;SDS011;10132;50.864;5.176;2023-12-20T00:16:47;207.63;;;195.67;;
19940;SDS011;10132;50.864;5.176;2023-12-20T00:18:49;670.63;;;613.00;;
19940;SDS011;10132;50.864;5.176;2023-12-20T00:20:51;431.73;;;401.77;;
19940;SDS011;10132;50.864;5.176;2023-12-20T00:22:53;458.70;;;427.50;;
19940;SDS011;10132;50.864;5.176;2023-12-20T00:24:55;304.83;;;287.20;;
19940;SDS011;10132;50.864;5.176;2023-12-20T00:26:59;359.53;;;338.77;;
19940;SDS011;10132;50.864;5.176;2023-12-20T00:29:01;439.73;;;413.13;;
19940;SDS011;10132;50.864;5.176;2023-12-20T00:31:03;477.53;;;447.83;;
19940;SDS011;10132;50.864;5.176;2023-12-20T00:33:05;613.57;;;572.90;;
19940;SDS011;10132;50.864;5.176;2023-12-20T00:35:07;502.20;;;470.90;;
19940;SDS011;10132;50.864;5.176;2023-12-20T00:37:09;547.53;;;512.60;;
19940;SDS011;10132;50.864;5.176;2023-12-20T00:39:11;475.27;;;446.93;;
19940;SDS011;10132;50.864;5.176;2023-12-20T00:41:13;617.80;;;579.37;;
19940;SDS011;10132;50.864;5.176;2023-12-20T00:43:15;589.87;;;553.47;;
19940;SDS011;10132;50.864;5.176;2023-12-20T00:45:17;680.67;;;635.83;;
19940;SDS011;10132;50.864;5.176;2023-12-20T00:47:19;700.97;;;653.43;;
19940;SDS011;10132;50.864;5.176;2023-12-20T00:49:21;569.77;;;532.60;;
19940;SDS011;10132;50.864;5.176;2023-12-20T00:51:22;467.43;;;440.00;;
19940;SDS011;10132;50.864;5.176;2023-12-20T00:53:24;440.03;;;415.33;;
19940;SDS011;10132;50.864;5.176;2023-12-20T00:55:25;522.90;;;491.83;;
19940;SDS011;10132;50.864;5.176;2023-12-20T00:57:27;485.87;;;456.10;;
19940;SDS011;10132;50.864;5.176;2023-12-20T00:59:30;301.43;;;284.97;;
19940;SDS011;10132;50.864;5.176;2023-12-20T01:01:32;315.47;;;298.57;;
19940;SDS011;10132;50.864;5.176;2023-12-20T01:03:33;275.53;;;260.37;;
19940;SDS011;10132;50.864;5.176;2023-12-20T01:05:35;289.57;;;273.20;;
19940;SDS011;10132;50.864;5.176;2023-12-20T01:07:37;356.47;;;336.50;;
19940;SDS011;10132;50.864;5.176;2023-12-20T01:09:39;479.33;;;450.67;;
19940;SDS011;10132;50.864;5.176;2023-12-20T01:11:41;480.37;;;452.30;;
19940;SDS011;10132;50.864;5.176;2023-12-20T01:13:43;492.30;;;463.60;;
19940;SDS011;10132;50.864;5.176;2023-12-20T01:15:46;386.23;;;363.10;;
19940;SDS011;10132;50.864;5.176;2023-12-20T01:17:48;496.47;;;467.80;;
19940;SDS011;10132;50.864;5.176;2023-12-20T01:19:51;416.47;;;388.87;;
19940;SDS011;10132;50.864;5.176;2023-12-20T01:21:53;277.20;;;261.80;;
19940;SDS011;10132;50.864;5.176;2023-12-20T01:23:55;206.97;;;195.63;;
19940;SDS011;10132;50.864;5.176;2023-12-20T01:25:57;356.23;;;336.83;;
19940;SDS011;10132;50.864;5.176;2023-12-20T01:27:59;169.80;;;160.27;;
19940;SDS011;10132;50.864;5.176;2023-12-20T01:30:03;216.53;;;204.83;;
19940;SDS011;10132;50.864;5.176;2023-12-20T01:32:07;244.50;;;230.97;;
19940;SDS011;10132;50.864;5.176;2023-12-20T01:34:09;197.33;;;185.43;;
19940;SDS011;10132;50.864;5.176;2023-12-20T01:36:11;250.53;;;236.70;;
19940;SDS011;10132;50.864;5.176;2023-12-20T01:38:13;232.43;;;217.43;;
19940;SDS011;10132;50.864;5.176;2023-12-20T01:40:19;258.50;;;243.50;;
19940;SDS011;10132;50.864;5.176;2023-12-20T01:42:21;284.73;;;268.80;;
19940;SDS011;10132;50.864;5.176;2023-12-20T01:44:23;154.57;;;145.60;;
19940;SDS011;10132;50.864;5.176;2023-12-20T01:46:25;133.97;;;126.37;;
19940;SDS011;10132;50.864;5.176;2023-12-20T01:48:29;244.97;;;228.67;;
19940;SDS011;10132;50.864;5.176;2023-12-20T01:50:32;166.20;;;156.40;;
19940;SDS011;10132;50.864;5.176;2023-12-20T01:52:36;182.10;;;171.20;;
19940;SDS011;10132;50.864;5.176;2023-12-20T01:54:39;220.23;;;207.47;;
19940;SDS011;10132;50.864;5.176;2023-12-20T01:56:43;246.30;;;231.07;;
19940;SDS011;10132;50.864;5.176;2023-12-20T01:58:45;235.67;;;221.80;;
19940;SDS011;10132;50.864;5.176;2023-12-20T02:00:48;222.37;;;209.23;;
19940;SDS011;10132;50.864;5.176;2023-12-20T02:02:51;237.53;;;224.20;;
19940;SDS011;10132;50.864;5.176;2023-12-20T02:04:56;168.53;;;159.03;;
19940;SDS011;10132;50.864;5.176;2023-12-20T02:06:58;210.30;;;197.93;;
19940;SDS011;10132;50.864;5.176;2023-12-20T02:09:00;246.47;;;231.23;;
19940;SDS011;10132;50.864;5.176;2023-12-20T02:11:01;207.40;;;195.93;;
19940;SDS011;10132;50.864;5.176;2023-12-20T02:13:03;221.67;;;209.50;;
19940;SDS011;10132;50.864;5.176;2023-12-20T02:15:06;232.43;;;219.57;;
19940;SDS011;10132;50.864;5.176;2023-12-20T02:17:08;213.03;;;201.07;;
19940;SDS011;10132;50.864;5.176;2023-12-20T02:19:12;245.20;;;231.00;;
19940;SDS011;10132;50.864;5.176;2023-12-20T02:21:17;267.73;;;251.97;;
19940;SDS011;10132;50.864;5.176;2023-12-20T02:23:20;224.97;;;211.53;;
19940;SDS011;10132;50.864;5.176;2023-12-20T02:25:22;280.00;;;264.73;;
19940;SDS011;10132;50.864;5.176;2023-12-20T02:27:24;190.27;;;179.03;;
19940;SDS011;10132;50.864;5.176;2023-12-20T02:29:26;301.03;;;284.10;;
19940;SDS011;10132;50.864;5.176;2023-12-20T02:31:28;268.80;;;252.97;;
19940;SDS011;10132;50.864;5.176;2023-12-20T02:33:30;271.20;;;255.47;;
19940;SDS011;10132;50.864;5.176;2023-12-20T02:35:32;250.73;;;235.40;;
19940;SDS011;10132;50.864;5.176;2023-12-20T02:37:33;243.50;;;228.27;;
19940;SDS011;10132;50.864;5.176;2023-12-20T02:39:36;257.07;;;242.53;;
19940;SDS011;10132;50.864;5.176;2023-12-20T02:41:37;215.17;;;202.70;;
19940;SDS011;10132;50.864;5.176;2023-12-20T02:43:39;215.10;;;202.70;;
19940;SDS011;10132;50.864;5.176;2023-12-20T02:45:41;370.90;;;349.03;;
19940;SDS011;10132;50.864;5.176;2023-12-20T02:47:43;320.27;;;299.90;;
19940;SDS011;10132;50.864;5.176;2023-12-20T02:49:45;381.77;;;354.23;;
19940;SDS011;10132;50.864;5.176;2023-12-20T02:51:47;358.67;;;331.93;;
19940;SDS011;10132;50.864;5.176;2023-12-20T02:53:49;421.67;;;388.60;;
19940;SDS011;10132;50.864;5.176;2023-12-20T02:55:52;211.27;;;199.13;;
19940;SDS011;10132;50.864;5.176;2023-12-20T02:57:54;239.07;;;226.13;;
19940;SDS011;10132;50.864;5.176;2023-12-20T02:59:56;410.30;;;378.83;;
19940;SDS011;10132;50.864;5.176;2023-12-20T03:01:57;266.07;;;248.70;;
19940;SDS011;10132;50.864;5.176;2023-12-20T03:03:59;204.73;;;193.10;;
19940;SDS011;10132;50.864;5.176;2023-12-20T03:06:00;274.83;;;258.27;;
19940;SDS011;10132;50.864;5.176;2023-12-20T03:08:02;431.80;;;394.30;;
19940;SDS011;10132;50.864;5.176;2023-12-20T03:10:04;887.00;;;541.13;;
19940;SDS011;10132;50.864;5.176;2023-12-20T03:12:09;344.30;;;321.83;;
19940;SDS011;10132;50.864;5.176;2023-12-20T03:14:11;322.07;;;298.33;;
19940;SDS011;10132;50.864;5.176;2023-12-20T03:16:13;341.67;;;316.73;;
19940;SDS011;10132;50.864;5.176;2023-12-20T03:18:16;315.87;;;296.50;;
19940;SDS011;10132;50.864;5.176;2023-12-20T03:20:19;1999.90;;;999.90;;
19940;SDS011;10132;50.864;5.176;2023-12-20T03:22:20;873.60;;;528.13;;
19940;SDS011;10132;50.864;5.176;2023-12-20T03:24:21;243.43;;;229.73;;
19940;SDS011;10132;50.864;5.176;2023-12-20T03:26:23;279.63;;;263.23;;
19940;SDS011;10132;50.864;5.176;2023-12-20T03:28:27;286.63;;;269.40;;
19940;SDS011;10132;50.864;5.176;2023-12-20T03:30:29;338.93;;;318.43;;
19940;SDS011;10132;50.864;5.176;2023-12-20T03:32:31;296.33;;;279.07;;
19940;SDS011;10132;50.864;5.176;2023-12-20T03:34:33;374.40;;;350.50;;
19940;SDS011;10132;50.864;5.176;2023-12-20T03:36:35;339.80;;;318.70;;
19940;SDS011;10132;50.864;5.176;2023-12-20T03:38:37;355.50;;;332.27;;
19940;SDS011;10132;50.864;5.176;2023-12-20T03:40:39;412.87;;;384.33;;
19940;SDS011;10132;50.864;5.176;2023-12-20T03:42:41;457.70;;;424.23;;
19940;SDS011;10132;50.864;5.176;2023-12-20T03:44:44;395.27;;;365.87;;
19940;SDS011;10132;50.864;5.176;2023-12-20T03:46:46;432.30;;;403.37;;
19940;SDS011;10132;50.864;5.176;2023-12-20T03:48:49;545.67;;;506.03;;
19940;SDS011;10132;50.864;5.176;2023-12-20T03:50:51;593.93;;;548.53;;
19940;SDS011;10132;50.864;5.176;2023-12-20T03:52:53;1083.97;;;721.97;;
19940;SDS011;10132;50.864;5.176;2023-12-20T03:54:55;470.33;;;441.17;;
19940;SDS011;10132;50.864;5.176;2023-12-20T03:56:57;583.10;;;544.37;;
19940;SDS011;10132;50.864;5.176;2023-12-20T03:58:59;462.30;;;433.37;;
19940;SDS011;10132;50.864;5.176;2023-12-20T04:01:02;399.57;;;373.40;;
19940;SDS011;10132;50.864;5.176;2023-12-20T04:03:04;442.90;;;415.00;;
19940;SDS011;10132;50.864;5.176;2023-12-20T04:05:07;495.03;;;463.30;;
19940;SDS011;10132;50.864;5.176;2023-12-20T04:07:09;459.10;;;430.70;;
19940;SDS011;10132;50.864;5.176;2023-12-20T04:09:10;530.80;;;497.87;;
19940;SDS011;10132;50.864;5.176;2023-12-20T04:11:12;454.20;;;427.33;;
19940;SDS011;10132;50.864;5.176;2023-12-20T04:13:14;368.17;;;344.07;;
19940;SDS011;10132;50.864;5.176;2023-12-20T04:15:16;468.07;;;440.50;;
19940;SDS011;10132;50.864;5.176;2023-12-20T04:17:19;624.97;;;582.00;;
19940;SDS011;10132;50.864;5.176;2023-12-20T04:19:22;497.73;;;467.80;;
19940;SDS011;10132;50.864;5.176;2023-12-20T04:21:24;580.97;;;538.83;;
19940;SDS011;10132;50.864;5.176;2023-12-20T04:23:26;676.97;;;630.77;;
19940;SDS011;10132;50.864;5.176;2023-12-20T04:25:28;715.90;;;663.17;;
19940;SDS011;10132;50.864;5.176;2023-12-20T04:27:30;604.77;;;554.73;;
19940;SDS011;10132;50.864;5.176;2023-12-20T04:29:32;698.37;;;649.87;;
19940;SDS011;10132;50.864;5.176;2023-12-20T04:31:34;698.47;;;641.53;;
19940;SDS011;10132;50.864;5.176;2023-12-20T04:33:36;664.57;;;619.50;;
19940;SDS011;10132;50.864;5.176;2023-12-20T04:35:38;666.80;;;611.60;;
19940;SDS011;10132;50.864;5.176;2023-12-20T04:37:42;673.03;;;626.93;;
19940;SDS011;10132;50.864;5.176;2023-12-20T04:39:44;691.53;;;630.27;;
19940;SDS011;10132;50.864;5.176;2023-12-20T04:41:46;641.37;;;592.03;;
19940;SDS011;10132;50.864;5.176;2023-12-20T04:43:50;571.40;;;527.63;;
19940;SDS011;10132;50.864;5.176;2023-12-20T04:45:52;711.77;;;652.90;;
19940;SDS011;10132;50.864;5.176;2023-12-20T04:47:54;544.13;;;507.67;;
19940;SDS011;10132;50.864;5.176;2023-12-20T04:49:58;368.93;;;344.97;;
19940;SDS011;10132;50.864;5.176;2023-12-20T04:51:59;304.33;;;284.73;;
19940;SDS011;10132;50.864;5.176;2023-12-20T04:54:01;316.27;;;296.07;;
19940;SDS011;10132;50.864;5.176;2023-12-20T04:56:03;537.30;;;498.70;;
19940;SDS011;10132;50.864;5.176;2023-12-20T04:58:05;551.10;;;511.53;;
19940;SDS011;10132;50.864;5.176;2023-12-20T05:00:08;527.23;;;490.80;;
19940;SDS011;10132;50.864;5.176;2023-12-20T05:02:09;431.80;;;403.83;;
19940;SDS011;10132;50.864;5.176;2023-12-20T05:04:11;638.37;;;593.20;;
19940;SDS011;10132;50.864;5.176;2023-12-20T05:06:15;573.53;;;531.73;;
19940;SDS011;10132;50.864;5.176;2023-12-20T05:08:17;430.80;;;402.30;;
19940;SDS011;10132;50.864;5.176;2023-12-20T05:10:19;415.13;;;388.70;;
19940;SDS011;10132;50.864;5.176;2023-12-20T05:12:20;497.20;;;456.67;;
19940;SDS011;10132;50.864;5.176;2023-12-20T05:14:21;606.03;;;565.27;;
19940;SDS011;10132;50.864;5.176;2023-12-20T05:16:23;492.83;;;459.20;;
19940;SDS011;10132;50.864;5.176;2023-12-20T05:18:24;338.10;;;316.93;;
19940;SDS011;10132;50.864;5.176;2023-12-20T05:20:26;715.07;;;658.77;;
19940;SDS011;10132;50.864;5.176;2023-12-20T05:22:30;707.30;;;655.57;;
19940;SDS011;10132;50.864;5.176;2023-12-20T05:24:30;682.83;;;624.17;;
19940;SDS011;10132;50.864;5.176;2023-12-20T05:26:32;532.80;;;495.97;;
19940;SDS011;10132;50.864;5.176;2023-12-20T05:28:34;523.57;;;488.10;;
19940;SDS011;10132;50.864;5.176;2023-12-20T05:30:35;476.83;;;447.63;;
19940;SDS011;10132;50.864;5.176;2023-12-20T05:32:37;407.23;;;381.47;;
19940;SDS011;10132;50.864;5.176;2023-12-20T05:34:39;237.90;;;223.50;;
19940;SDS011;10132;50.864;5.176;2023-12-20T05:36:41;212.73;;;199.70;;
19940;SDS011;10132;50.864;5.176;2023-12-20T05:38:44;275.07;;;259.53;;
19940;SDS011;10132;50.864;5.176;2023-12-20T05:40:46;625.67;;;581.37;;
19940;SDS011;10132;50.864;5.176;2023-12-20T05:42:48;410.50;;;385.33;;
19940;SDS011;10132;50.864;5.176;2023-12-20T05:44:50;464.00;;;434.10;;
19940;SDS011;10132;50.864;5.176;2023-12-20T05:46:52;510.63;;;464.30;;
19940;SDS011;10132;50.864;5.176;2023-12-20T05:48:53;603.80;;;565.07;;
19940;SDS011;10132;50.864;5.176;2023-12-20T05:50:55;579.30;;;532.83;;
19940;SDS011;10132;50.864;5.176;2023-12-20T05:52:57;573.73;;;532.10;;
19940;SDS011;10132;50.864;5.176;2023-12-20T05:55:01;510.43;;;477.37;;
19940;SDS011;10132;50.864;5.176;2023-12-20T05:57:03;472.73;;;441.83;;
19940;SDS011;10132;50.864;5.176;2023-12-20T05:59:05;486.50;;;455.37;;
19940;SDS011;10132;50.864;5.176;2023-12-20T06:01:07;418.90;;;394.03;;
19940;SDS011;10132;50.864;5.176;2023-12-20T06:03:09;309.00;;;290.00;;
19940;SDS011;10132;50.864;5.176;2023-12-20T06:05:11;433.27;;;406.93;;
19940;SDS011;10132;50.864;5.176;2023-12-20T06:07:13;390.63;;;367.43;;
19940;SDS011;10132;50.864;5.176;2023-12-20T06:09:16;380.43;;;357.30;;
19940;SDS011;10132;50.864;5.176;2023-12-20T06:11:20;350.00;;;328.33;;
19940;SDS011;10132;50.864;5.176;2023-12-20T06:13:22;487.80;;;456.43;;
19940;SDS011;10132;50.864;5.176;2023-12-20T06:15:23;407.13;;;381.73;;
19940;SDS011;10132;50.864;5.176;2023-12-20T06:17:26;406.60;;;380.23;;
19940;SDS011;10132;50.864;5.176;2023-12-20T06:19:30;421.37;;;395.50;;
19940;SDS011;10132;50.864;5.176;2023-12-20T06:21:32;458.87;;;426.53;;
19940;SDS011;10132;50.864;5.176;2023-12-20T06:23:34;514.57;;;475.43;;
19940;SDS011;10132;50.864;5.176;2023-12-20T06:25:36;388.03;;;364.83;;
19940;SDS011;10132;50.864;5.176;2023-12-20T06:27:40;385.17;;;362.27;;
19940;SDS011;10132;50.864;5.176;2023-12-20T06:29:42;515.83;;;482.40;;
19940;SDS011;10132;50.864;5.176;2023-12-20T06:31:45;497.50;;;464.13;;
19940;SDS011;10132;50.864;5.176;2023-12-20T06:33:47;367.87;;;345.07;;
19940;SDS011;10132;50.864;5.176;2023-12-20T06:35:57;945.00;;;593.77;;
19940;SDS011;10132;50.864;5.176;2023-12-20T06:37:59;493.60;;;458.10;;
19940;SDS011;10132;50.864;5.176;2023-12-20T06:40:01;449.90;;;410.27;;
19940;SDS011;10132;50.864;5.176;2023-12-20T06:42:03;469.33;;;436.23;;
19940;SDS011;10132;50.864;5.176;2023-12-20T06:44:07;486.00;;;451.97;;
19940;SDS011;10132;50.864;5.176;2023-12-20T06:46:09;404.73;;;374.10;;
19940;SDS011;10132;50.864;5.176;2023-12-20T06:48:13;365.93;;;344.40;;
19940;SDS011;10132;50.864;5.176;2023-12-20T06:50:14;359.80;;;337.60;;
19940;SDS011;10132;50.864;5.176;2023-12-20T06:52:16;302.33;;;283.53;;
19940;SDS011;10132;50.864;5.176;2023-12-20T06:54:18;245.83;;;230.17;;
19940;SDS011;10132;50.864;5.176;2023-12-20T06:56:20;291.37;;;274.77;;
19940;SDS011;10132;50.864;5.176;2023-12-20T06:58:22;277.97;;;262.77;;
19940;SDS011;10132;50.864;5.176;2023-12-20T07:00:25;303.90;;;286.37;;
19940;SDS011;10132;50.864;5.176;2023-12-20T07:02:27;326.53;;;306.67;;
19940;SDS011;10132;50.864;5.176;2023-12-20T07:04:30;527.20;;;479.40;;
19940;SDS011;10132;50.864;5.176;2023-12-20T07:06:32;242.73;;;228.10;;
19940;SDS011;10132;50.864;5.176;2023-12-20T07:08:34;303.53;;;284.83;;
19940;SDS011;10132;50.864;5.176;2023-12-20T07:10:36;260.13;;;244.27;;
19940;SDS011;10132;50.864;5.176;2023-12-20T07:12:38;338.27;;;313.00;;
19940;SDS011;10132;50.864;5.176;2023-12-20T07:14:40;432.47;;;392.70;;
19940;SDS011;10132;50.864;5.176;2023-12-20T07:16:43;366.73;;;333.53;;
19940;SDS011;10132;50.864;5.176;2023-12-20T07:18:45;435.27;;;405.20;;
19940;SDS011;10132;50.864;5.176;2023-12-20T07:20:47;304.27;;;285.00;;
19940;SDS011;10132;50.864;5.176;2023-12-20T07:22:49;472.07;;;437.67;;
19940;SDS011;10132;50.864;5.176;2023-12-20T07:24:51;348.40;;;324.07;;
19940;SDS011;10132;50.864;5.176;2023-12-20T07:26:54;402.83;;;366.50;;
19940;SDS011;10132;50.864;5.176;2023-12-20T07:28:57;440.47;;;411.90;;
19940;SDS011;10132;50.864;5.176;2023-12-20T07:30:59;340.87;;;319.27;;
19940;SDS011;10132;50.864;5.176;2023-12-20T07:33:01;228.03;;;214.40;;
19940;SDS011;10132;50.864;5.176;2023-12-20T07:35:03;297.13;;;278.80;;
19940;SDS011;10132;50.864;5.176;2023-12-20T07:37:06;288.13;;;270.03;;
19940;SDS011;10132;50.864;5.176;2023-12-20T07:39:10;435.77;;;403.67;;
19940;SDS011;10132;50.864;5.176;2023-12-20T07:41:12;420.77;;;391.57;;
19940;SDS011;10132;50.864;5.176;2023-12-20T07:43:15;417.80;;;389.17;;
19940;SDS011;10132;50.864;5.176;2023-12-20T07:45:17;931.67;;;582.60;;
19940;SDS011;10132;50.864;5.176;2023-12-20T07:47:19;879.33;;;532.50;;
19940;SDS011;10132;50.864;5.176;2023-12-20T07:49:23;479.17;;;445.00;;
19940;SDS011;10132;50.864;5.176;2023-12-20T07:51:25;1027.00;;;667.30;;
19940;SDS011;10132;50.864;5.176;2023-12-20T07:53:27;1999.90;;;999.90;;
19940;SDS011;10132;50.864;5.176;2023-12-20T07:55:29;1999.90;;;999.90;;
19940;SDS011;10132;50.864;5.176;2023-12-20T07:57:31;1999.90;;;999.90;;
19940;SDS011;10132;50.864;5.176;2023-12-20T07:59:33;1999.90;;;999.90;;
19940;SDS011;10132;50.864;5.176;2023-12-20T08:01:35;1999.90;;;999.90;;
19940;SDS011;10132;50.864;5.176;2023-12-20T08:03:37;520.47;;;486.77;;
19940;SDS011;10132;50.864;5.176;2023-12-20T08:05:41;554.80;;;513.47;;
19940;SDS011;10132;50.864;5.176;2023-12-20T08:07:43;484.30;;;450.03;;
19940;SDS011;10132;50.864;5.176;2023-12-20T08:09:45;455.17;;;427.30;;
19940;SDS011;10132;50.864;5.176;2023-12-20T08:11:47;263.13;;;247.37;;
19940;SDS011;10132;50.864;5.176;2023-12-20T08:13:49;371.50;;;347.77;;
19940;SDS011;10132;50.864;5.176;2023-12-20T08:15:51;371.93;;;348.37;;
19940;SDS011;10132;50.864;5.176;2023-12-20T08:17:54;340.27;;;317.23;;
19940;SDS011;10132;50.864;5.176;2023-12-20T08:19:56;336.37;;;314.00;;
19940;SDS011;10132;50.864;5.176;2023-12-20T08:22:00;501.97;;;437.40;;
19940;SDS011;10132;50.864;5.176;2023-12-20T08:24:02;296.37;;;276.23;;
19940;SDS011;10132;50.864;5.176;2023-12-20T08:26:05;468.13;;;434.90;;
19940;SDS011;10132;50.864;5.176;2023-12-20T08:28:06;457.47;;;427.23;;
19940;SDS011;10132;50.864;5.176;2023-12-20T08:30:08;357.23;;;334.20;;
19940;SDS011;10132;50.864;5.176;2023-12-20T08:32:11;433.80;;;395.13;;
19940;SDS011;10132;50.864;5.176;2023-12-20T08:34:13;360.57;;;336.00;;
19940;SDS011;10132;50.864;5.176;2023-12-20T08:36:15;382.13;;;355.77;;
19940;SDS011;10132;50.864;5.176;2023-12-20T08:38:19;269.23;;;250.03;;
19940;SDS011;10132;50.864;5.176;2023-12-20T08:40:21;306.03;;;285.97;;
19940;SDS011;10132;50.864;5.176;2023-12-20T08:42:23;272.77;;;254.53;;
19940;SDS011;10132;50.864;5.176;2023-12-20T08:44:31;340.33;;;309.90;;
19940;SDS011;10132;50.864;5.176;2023-12-20T08:46:33;518.83;;;472.80;;
19940;SDS011;10132;50.864;5.176;2023-12-20T08:48:35;353.10;;;327.10;;
19940;SDS011;10132;50.864;5.176;2023-12-20T08:50:37;385.90;;;357.10;;
19940;SDS011;10132;50.864;5.176;2023-12-20T08:52:39;342.50;;;321.57;;
19940;SDS011;10132;50.864;5.176;2023-12-20T08:54:43;355.50;;;335.23;;
19940;SDS011;10132;50.864;5.176;2023-12-20T08:56:45;391.80;;;368.20;;
19940;SDS011;10132;50.864;5.176;2023-12-20T08:58:47;271.83;;;256.63;;
19940;SDS011;10132;50.864;5.176;2023-12-20T09:00:49;373.30;;;344.87;;
19940;SDS011;10132;50.864;5.176;2023-12-20T09:02:50;334.03;;;314.57;;
19940;SDS011;10132;50.864;5.176;2023-12-20T09:04:52;397.77;;;372.87;;
19940;SDS011;10132;50.864;5.176;2023-12-20T09:06:54;305.73;;;286.87;;
19940;SDS011;10132;50.864;5.176;2023-12-20T09:08:56;327.90;;;307.07;;
19940;SDS011;10132;50.864;5.176;2023-12-20T09:10:59;396.33;;;369.03;;
19940;SDS011;10132;50.864;5.176;2023-12-20T09:13:01;365.20;;;337.03;;
19940;SDS011;10132;50.864;5.176;2023-12-20T09:15:04;444.73;;;419.73;;
19940;SDS011;10132;50.864;5.176;2023-12-20T09:17:06;353.80;;;330.83;;
19940;SDS011;10132;50.864;5.176;2023-12-20T09:19:10;322.60;;;303.93;;
19940;SDS011;10132;50.864;5.176;2023-12-20T09:21:12;374.83;;;349.57;;
19940;SDS011;10132;50.864;5.176;2023-12-20T09:23:14;423.40;;;397.43;;
19940;SDS011;10132;50.864;5.176;2023-12-20T09:25:15;466.57;;;436.93;;
19940;SDS011;10132;50.864;5.176;2023-12-20T09:27:19;367.33;;;345.47;;
19940;SDS011;10132;50.864;5.176;2023-12-20T09:29:22;337.90;;;317.83;;
19940;SDS011;10132;50.864;5.176;2023-12-20T09:31:23;427.17;;;396.60;;
19940;SDS011;10132;50.864;5.176;2023-12-20T09:33:25;418.33;;;391.53;;
19940;SDS011;10132;50.864;5.176;2023-12-20T09:35:26;538.20;;;504.30;;
19940;SDS011;10132;50.864;5.176;2023-12-20T09:37:28;410.17;;;384.93;;
19940;SDS011;10132;50.864;5.176;2023-12-20T09:39:29;551.50;;;494.57;;
19940;SDS011;10132;50.864;5.176;2023-12-20T09:41:31;476.97;;;442.43;;
19940;SDS011;10132;50.864;5.176;2023-12-20T09:43:41;411.40;;;384.73;;
19940;SDS011;10132;50.864;5.176;2023-12-20T09:45:44;514.83;;;470.87;;
19940;SDS011;10132;50.864;5.176;2023-12-20T09:47:48;280.93;;;262.67;;
19940;SDS011;10132;50.864;5.176;2023-12-20T09:49:51;314.47;;;296.53;;
19940;SDS011;10132;50.864;5.176;2023-12-20T09:51:53;262.43;;;246.87;;
19940;SDS011;10132;50.864;5.176;2023-12-20T09:53:55;318.87;;;298.07;;
19940;SDS011;10132;50.864;5.176;2023-12-20T09:55:58;321.20;;;302.20;;
19940;SDS011;10132;50.864;5.176;2023-12-20T09:58:01;416.40;;;386.83;;
19940;SDS011;10132;50.864;5.176;2023-12-20T10:00:05;477.17;;;435.20;;
19940;SDS011;10132;50.864;5.176;2023-12-20T10:02:09;349.30;;;328.13;;
19940;SDS011;10132;50.864;5.176;2023-12-20T10:04:15;327.00;;;307.57;;
19940;SDS011;10132;50.864;5.176;2023-12-20T10:06:17;355.03;;;330.57;;
19940;SDS011;10132;50.864;5.176;2023-12-20T10:08:19;352.47;;;329.43;;
19940;SDS011;10132;50.864;5.176;2023-12-20T10:10:23;334.70;;;313.27;;
19940;SDS011;10132;50.864;5.176;2023-12-20T10:12:25;444.47;;;412.53;;
19940;SDS011;10132;50.864;5.176;2023-12-20T10:14:27;443.97;;;412.23;;
19940;SDS011;10132;50.864;5.176;2023-12-20T10:16:30;567.30;;;526.47;;
19940;SDS011;10132;50.864;5.176;2023-12-20T10:18:33;601.23;;;555.13;;
19940;SDS011;10132;50.864;5.176;2023-12-20T10:20:36;511.73;;;472.17;;
19940;SDS011;10132;50.864;5.176;2023-12-20T10:22:38;464.17;;;430.07;;
19940;SDS011;10132;50.864;5.176;2023-12-20T10:24:40;460.77;;;428.87;;
19940;SDS011;10132;50.864;5.176;2023-12-20T10:26:42;692.20;;;621.67;;
19940;SDS011;10132;50.864;5.176;2023-12-20T10:28:44;498.27;;;458.10;;
19940;SDS011;10132;50.864;5.176;2023-12-20T10:30:47;466.50;;;431.07;;
19940;SDS011;10132;50.864;5.176;2023-12-20T10:32:50;395.53;;;369.30;;
19940;SDS011;10132;50.864;5.176;2023-12-20T10:34:52;399.87;;;372.63;;
19940;SDS011;10132;50.864;5.176;2023-12-20T10:36:55;386.93;;;357.30;;
19940;SDS011;10132;50.864;5.176;2023-12-20T10:38:58;273.50;;;254.80;;
19940;SDS011;10132;50.864;5.176;2023-12-20T10:40:59;328.03;;;305.27;;
19940;SDS011;10132;50.864;5.176;2023-12-20T10:43:05;264.27;;;248.83;;
19940;SDS011;10132;50.864;5.176;2023-12-20T10:45:06;202.23;;;188.73;;
19940;SDS011;10132;50.864;5.176;2023-12-20T10:47:09;295.03;;;269.50;;
19940;SDS011;10132;50.864;5.176;2023-12-20T10:49:13;150.60;;;141.87;;
19940;SDS011;10132;50.864;5.176;2023-12-20T10:51:17;373.53;;;338.57;;
19940;SDS011;10132;50.864;5.176;2023-12-20T10:53:20;291.90;;;267.30;;
19940;SDS011;10132;50.864;5.176;2023-12-20T10:55:22;241.90;;;224.63;;
19940;SDS011;10132;50.864;5.176;2023-12-20T10:57:24;225.67;;;205.13;;
19940;SDS011;10132;50.864;5.176;2023-12-20T10:59:28;278.97;;;257.13;;
19940;SDS011;10132;50.864;5.176;2023-12-20T11:01:32;174.40;;;163.70;;
19940;SDS011;10132;50.864;5.176;2023-12-20T11:03:36;114.03;;;107.13;;
19940;SDS011;10132;50.864;5.176;2023-12-20T11:05:41;260.87;;;238.27;;
19940;SDS011;10132;50.864;5.176;2023-12-20T11:07:50;125.13;;;116.90;;
19940;SDS011;10132;50.864;5.176;2023-12-20T11:09:57;124.33;;;113.93;;
19940;SDS011;10132;50.864;5.176;2023-12-20T11:12:02;208.70;;;189.50;;
19940;SDS011;10132;50.864;5.176;2023-12-20T11:14:13;207.63;;;193.97;;
19940;SDS011;10132;50.864;5.176;2023-12-20T11:16:25;246.30;;;225.43;;
19940;SDS011;10132;50.864;5.176;2023-12-20T11:18:29;252.63;;;228.83;;
19940;SDS011;10132;50.864;5.176;2023-12-20T11:22:53;208.07;;;194.40;;
19940;SDS011;10132;50.864;5.176;2023-12-20T11:24:57;211.43;;;192.27;;
19940;SDS011;10132;50.864;5.176;2023-12-20T11:27:03;155.13;;;144.80;;
19940;SDS011;10132;50.864;5.176;2023-12-20T11:31:39;287.83;;;264.07;;
19940;SDS011;10132;50.864;5.176;2023-12-20T11:33:41;159.03;;;148.70;;
19940;SDS011;10132;50.864;5.176;2023-12-20T11:35:45;270.97;;;255.20;;
19940;SDS011;10132;50.864;5.176;2023-12-20T11:37:47;294.67;;;278.57;;
19940;SDS011;10132;50.864;5.176;2023-12-20T11:39:54;256.33;;;233.03;;